createdAt,value
2023-05-02T00:01:33.378Z,2.37
2023-05-02T00:04:02.893Z,1.93
2023-05-02T00:06:33.266Z,1.97
2023-05-02T00:09:04.185Z,2.30
2023-05-02T00:11:34.262Z,2.30
2023-05-02T00:14:03.690Z,2.23
2023-05-02T00:16:33.661Z,1.87
2023-05-02T00:19:04.113Z,2.50
2023-05-02T00:21:34.969Z,2.33
2023-05-02T00:24:06.149Z,2.53
2023-05-02T00:26:36.159Z,2.40
2023-05-02T00:29:06.536Z,2.33
2023-05-02T00:31:36.210Z,2.00
2023-05-02T00:34:06.298Z,2.60
2023-05-02T00:36:36.301Z,2.30
2023-05-02T00:39:06.620Z,1.90
2023-05-02T00:41:36.515Z,1.97
2023-05-02T00:44:07.201Z,4.27
2023-05-02T00:46:36.475Z,7.97
2023-05-02T00:49:05.940Z,2.23
2023-05-02T00:51:36.288Z,2.43
2023-05-02T00:54:07.777Z,1.80
2023-05-02T00:56:38.903Z,2.10
2023-05-02T00:59:10.241Z,2.17
2023-05-02T01:01:51.910Z,2.63
2023-05-02T01:04:40.337Z,2.40
2023-05-02T01:07:38.484Z,2.23
2023-05-02T01:10:24.896Z,2.50
2023-05-02T01:13:04.519Z,2.03
2023-05-02T01:15:39.919Z,2.47
2023-05-02T01:18:14.024Z,2.50
2023-05-02T01:20:46.102Z,2.90
2023-05-02T01:23:31.267Z,2.40
2023-05-02T01:26:21.016Z,1.93
2023-05-02T01:29:03.971Z,2.60
2023-05-02T01:31:38.930Z,2.60
2023-05-02T01:34:14.103Z,2.30
2023-05-02T01:36:47.236Z,3.43
2023-05-02T01:39:22.542Z,2.80
2023-05-02T01:41:54.261Z,2.20
2023-05-02T01:44:27.403Z,2.73
2023-05-02T01:47:00.152Z,2.87
2023-05-02T01:49:32.985Z,2.50
2023-05-02T01:52:11.661Z,2.73
2023-05-02T01:54:43.103Z,3.03
2023-05-02T01:57:14.119Z,2.97
2023-05-02T01:59:48.503Z,3.43
2023-05-02T02:02:18.839Z,3.20
2023-05-02T02:04:51.152Z,3.90
2023-05-02T02:07:21.659Z,3.30
2023-05-02T02:09:50.969Z,3.10
2023-05-02T02:12:28.668Z,3.00
2023-05-02T02:15:11.687Z,4.03
2023-05-02T02:17:49.530Z,3.90
2023-05-02T02:20:20.946Z,3.00
2023-05-02T02:22:51.435Z,3.33
2023-05-02T02:25:21.389Z,3.50
2023-05-02T02:27:51.717Z,3.47
2023-05-02T02:30:22.010Z,3.93
2023-05-02T02:32:52.870Z,4.30
2023-05-02T02:35:23.374Z,4.20
2023-05-02T02:38:05.660Z,4.07
2023-05-02T02:40:46.138Z,4.17
2023-05-02T02:43:35.335Z,4.20
2023-05-02T02:46:34.300Z,3.53
2023-05-02T02:49:24.065Z,4.17
2023-05-02T02:52:03.879Z,3.97
2023-05-02T02:54:45.296Z,4.13
2023-05-02T02:57:21.126Z,3.80
2023-05-02T03:00:03.622Z,3.80
2023-05-02T03:02:36.703Z,4.57
2023-05-02T03:05:11.520Z,4.00
2023-05-02T03:07:42.629Z,4.30
2023-05-02T03:10:12.495Z,3.87
2023-05-02T03:12:42.078Z,4.30
2023-05-02T03:15:31.296Z,4.30
2023-05-02T03:18:03.373Z,4.13
2023-05-02T03:20:33.272Z,5.13
2023-05-02T03:23:02.333Z,5.23
2023-05-02T03:25:31.734Z,5.20
2023-05-02T03:28:01.672Z,4.30
2023-05-02T03:30:30.751Z,4.80
2023-05-02T03:33:02.361Z,5.20
2023-05-02T03:35:31.753Z,5.10
2023-05-02T03:38:02.294Z,4.93
2023-05-02T03:40:32.233Z,7.27
2023-05-02T03:43:03.180Z,5.80
2023-05-02T03:45:32.535Z,6.13
2023-05-02T03:48:04.678Z,5.13
2023-05-02T03:50:34.222Z,5.57
2023-05-02T03:53:03.782Z,5.03
2023-05-02T03:55:33.754Z,6.50
2023-05-02T03:58:03.255Z,5.40
2023-05-02T04:00:35.180Z,5.67
2023-05-02T04:03:06.084Z,4.30
2023-05-02T04:05:36.461Z,5.43
2023-05-02T04:08:07.642Z,4.90
2023-05-02T04:10:38.177Z,6.30
2023-05-02T04:13:08.575Z,5.47
2023-05-02T04:15:37.146Z,5.60
2023-05-02T04:18:08.698Z,6.37
2023-05-02T04:20:38.830Z,6.70
2023-05-02T04:23:08.813Z,6.40
2023-05-02T04:25:39.370Z,6.73
2023-05-02T04:28:09.902Z,6.63
2023-05-02T04:30:40.088Z,7.17
2023-05-02T04:33:12.563Z,8.50
2023-05-02T04:35:43.976Z,7.77
2023-05-02T04:38:14.000Z,7.40
2023-05-02T04:40:44.380Z,7.13
2023-05-02T04:43:15.568Z,7.80
2023-05-02T04:45:45.199Z,7.50
2023-05-02T04:48:16.190Z,7.50
2023-05-02T04:50:47.469Z,8.73
2023-05-02T04:53:16.476Z,9.63
2023-05-02T04:55:46.064Z,10.30
2023-05-02T04:58:16.077Z,10.23
2023-05-02T05:00:45.042Z,10.50
2023-05-02T05:03:16.010Z,11.10
2023-05-02T05:05:44.985Z,10.43
2023-05-02T05:08:14.518Z,11.03
2023-05-02T05:10:45.009Z,11.23
2023-05-02T05:13:14.155Z,10.80
2023-05-02T05:15:44.601Z,12.33
2023-05-02T05:18:16.093Z,10.77
2023-05-02T05:20:46.611Z,12.00
2023-05-02T05:23:16.737Z,11.20
2023-05-02T05:25:47.249Z,11.43
2023-05-02T05:28:19.096Z,12.70
2023-05-02T05:30:48.947Z,12.10
2023-05-02T05:33:20.918Z,11.10
2023-05-02T05:35:50.275Z,12.00
2023-05-02T05:38:20.413Z,12.33
2023-05-02T05:40:52.435Z,11.93
2023-05-02T05:43:22.581Z,10.47
2023-05-02T05:45:54.417Z,10.83
2023-05-02T05:48:25.559Z,11.37
2023-05-02T05:50:54.955Z,13.60
2023-05-02T05:53:23.993Z,15.23
2023-05-02T05:55:53.410Z,16.20
2023-05-02T05:58:22.848Z,19.67
2023-05-02T06:00:52.919Z,18.03
2023-05-02T06:03:24.812Z,20.80
2023-05-02T06:05:55.374Z,20.93
2023-05-02T06:08:25.478Z,17.40
2023-05-02T06:10:55.528Z,16.57
2023-05-02T06:13:25.543Z,16.63
2023-05-02T06:15:56.585Z,17.00
2023-05-02T06:18:28.486Z,20.87
2023-05-02T06:20:59.071Z,21.67
2023-05-02T06:23:30.066Z,23.43
2023-05-02T06:26:02.482Z,21.40
2023-05-02T06:28:32.934Z,21.93
2023-05-02T06:31:04.308Z,18.63
2023-05-02T06:33:35.945Z,20.23
2023-05-02T06:36:07.258Z,18.67
2023-05-02T06:38:37.225Z,19.00
2023-05-02T06:41:06.843Z,17.80
2023-05-02T06:43:37.176Z,19.33
2023-05-02T06:46:07.842Z,17.57
2023-05-02T06:48:39.815Z,18.20
2023-05-02T06:51:09.644Z,16.70
2023-05-02T06:53:39.631Z,16.53
2023-05-02T06:56:10.217Z,16.80
2023-05-02T06:58:40.174Z,15.40
2023-05-02T07:01:09.651Z,15.87
2023-05-02T07:03:42.083Z,14.53
2023-05-02T07:06:11.492Z,15.97
2023-05-02T07:08:41.047Z,16.73
2023-05-02T07:11:09.934Z,14.70
2023-05-02T07:13:39.404Z,15.20
2023-05-02T07:16:10.570Z,13.87
2023-05-02T07:18:42.973Z,14.30
2023-05-02T07:21:12.931Z,13.57
2023-05-02T07:23:42.390Z,14.27
2023-05-02T07:26:12.891Z,14.10
2023-05-02T07:28:43.367Z,14.40
2023-05-02T07:31:12.231Z,13.40
2023-05-02T07:33:43.703Z,13.67
2023-05-02T07:36:13.732Z,22.00
2023-05-02T07:38:44.790Z,13.27
2023-05-02T07:41:16.324Z,11.40
2023-05-02T07:43:45.776Z,13.13
2023-05-02T07:46:15.190Z,10.37
2023-05-02T07:48:46.820Z,12.20
2023-05-02T07:51:16.372Z,9.90
2023-05-02T07:53:47.363Z,12.43
2023-05-02T07:56:17.391Z,10.00
2023-05-02T07:58:47.356Z,11.97
2023-05-02T08:01:18.309Z,10.67
2023-05-02T08:03:49.982Z,11.80
2023-05-02T08:06:19.893Z,11.93
2023-05-02T08:08:49.314Z,12.27
2023-05-02T08:11:18.792Z,12.00
2023-05-02T08:13:48.788Z,13.10
2023-05-02T08:16:18.596Z,11.67
2023-05-02T08:18:49.654Z,11.40
2023-05-02T08:21:20.362Z,11.60
2023-05-02T08:23:50.854Z,12.60
2023-05-02T08:26:22.479Z,11.03
2023-05-02T08:28:52.905Z,11.87
2023-05-02T08:31:22.482Z,10.47
2023-05-02T08:33:53.858Z,9.67
2023-05-02T08:36:24.333Z,9.53
2023-05-02T08:38:54.759Z,9.03
2023-05-02T08:41:25.741Z,9.80
2023-05-02T08:43:56.556Z,8.73
2023-05-02T08:46:27.718Z,8.90
2023-05-02T08:49:01.205Z,8.03
2023-05-02T08:51:33.661Z,6.93
2023-05-02T08:54:06.060Z,6.40
2023-05-02T08:56:36.564Z,7.07
2023-05-02T08:59:06.634Z,6.73
2023-05-02T09:01:37.576Z,7.73
2023-05-02T09:04:08.432Z,5.80
2023-05-02T09:06:39.850Z,5.37
2023-05-02T09:09:08.453Z,5.57
2023-05-02T09:11:38.432Z,4.77
2023-05-02T09:14:19.110Z,5.47
2023-05-02T09:16:50.074Z,5.33
2023-05-02T09:19:28.994Z,5.67
2023-05-02T09:22:03.469Z,6.20
2023-05-02T09:24:33.613Z,6.40
2023-05-02T09:27:05.424Z,5.00
2023-05-02T09:29:38.038Z,5.93
2023-05-02T09:32:08.073Z,9.70
2023-05-02T09:34:39.915Z,6.87
2023-05-02T09:37:13.209Z,5.93
2023-05-02T09:39:43.755Z,5.70
2023-05-02T09:42:13.270Z,6.00
2023-05-02T09:44:44.478Z,7.03
2023-05-02T09:47:28.528Z,6.10
2023-05-02T09:49:59.967Z,6.43
2023-05-02T09:52:30.425Z,6.60
2023-05-02T09:55:00.608Z,6.40
2023-05-02T09:57:42.861Z,6.03
2023-05-02T10:00:20.082Z,6.40
2023-05-02T10:02:52.233Z,5.87
2023-05-02T10:05:24.956Z,4.70
2023-05-02T10:07:58.368Z,5.80
2023-05-02T10:10:28.719Z,5.93
2023-05-02T10:12:58.726Z,5.00
2023-05-02T10:15:32.563Z,5.57
2023-05-02T10:18:05.101Z,16.17
2023-05-02T10:20:44.942Z,7.10
2023-05-02T10:23:18.036Z,5.73
2023-05-02T10:25:48.933Z,6.40
2023-05-02T10:28:18.622Z,6.63
2023-05-02T10:30:50.547Z,5.83
2023-05-02T10:33:20.863Z,6.43
2023-05-02T10:35:52.141Z,6.10
2023-05-02T10:38:24.722Z,6.40
2023-05-02T10:41:01.352Z,6.03
2023-05-02T10:43:38.471Z,6.13
2023-05-02T10:46:32.760Z,5.80
2023-05-02T10:49:08.640Z,4.90
2023-05-02T10:51:42.691Z,9.77
2023-05-02T10:54:22.609Z,6.33
2023-05-02T10:57:28.136Z,5.37
2023-05-02T11:00:17.036Z,4.43
2023-05-02T11:02:51.685Z,9.63
2023-05-02T11:05:21.298Z,5.20
2023-05-02T11:07:52.379Z,4.07
2023-05-02T11:10:29.928Z,3.60
2023-05-02T11:13:01.924Z,3.00
2023-05-02T11:15:57.853Z,3.37
2023-05-02T11:18:28.461Z,3.63
2023-05-02T11:21:30.352Z,3.20
2023-05-02T11:24:49.805Z,3.10
2023-05-02T11:27:44.557Z,27.17
2023-05-02T11:30:15.987Z,4.70
2023-05-02T11:33:17.841Z,4.90
2023-05-02T11:35:51.212Z,3.17
2023-05-02T11:38:23.238Z,3.90
2023-05-02T11:40:56.597Z,4.47
2023-05-02T11:43:29.961Z,3.90
2023-05-02T11:46:02.183Z,3.30
2023-05-02T11:48:33.151Z,4.50
2023-05-02T11:51:07.361Z,3.87
2023-05-02T11:53:43.662Z,3.87
2023-05-02T11:56:15.601Z,3.43
2023-05-02T11:58:46.988Z,2.60
2023-05-02T12:01:17.705Z,2.70
2023-05-02T12:03:48.990Z,3.23
2023-05-02T12:06:20.788Z,2.80
2023-05-02T12:08:55.560Z,3.60
2023-05-02T12:11:27.028Z,3.53
2023-05-02T12:13:57.665Z,3.10
2023-05-02T12:16:29.018Z,3.20
2023-05-02T12:18:59.622Z,4.07
2023-05-02T12:21:30.974Z,4.13
2023-05-02T12:24:01.016Z,3.50
2023-05-02T12:26:33.780Z,3.57
2023-05-02T12:29:03.794Z,3.60
2023-05-02T12:31:33.281Z,3.67
2023-05-02T12:34:02.145Z,4.87
2023-05-02T12:36:31.668Z,2.60
2023-05-02T12:39:02.224Z,3.73
2023-05-02T12:41:37.773Z,3.70
2023-05-02T12:44:08.146Z,2.80
2023-05-02T12:46:38.152Z,2.60
2023-05-02T12:49:09.635Z,2.10
2023-05-02T12:51:41.312Z,2.43
2023-05-02T12:54:21.508Z,1.67
2023-05-02T12:56:53.440Z,2.13
2023-05-02T12:59:31.124Z,1.80
2023-05-02T13:02:02.477Z,1.50
2023-05-02T13:04:40.795Z,1.70
2023-05-02T13:07:11.806Z,1.50
2023-05-02T13:09:41.193Z,1.70
2023-05-02T13:12:13.723Z,1.90
2023-05-02T13:14:43.635Z,1.70
2023-05-02T13:17:12.894Z,1.43
2023-05-02T13:20:00.992Z,1.43
2023-05-02T13:22:32.020Z,1.30
2023-05-02T13:25:01.315Z,1.10
2023-05-02T13:27:32.277Z,1.30
2023-05-02T13:30:04.186Z,1.30
2023-05-02T13:32:36.735Z,1.17
2023-05-02T13:35:06.617Z,1.10
2023-05-02T13:37:36.228Z,1.10
2023-05-02T13:40:06.008Z,1.10
2023-05-02T13:42:37.450Z,1.00
2023-05-02T13:45:10.293Z,1.50
2023-05-02T13:47:39.542Z,1.20
2023-05-02T13:50:13.130Z,0.90
2023-05-02T13:52:43.168Z,1.57
2023-05-02T13:55:13.313Z,1.40
2023-05-02T13:57:44.166Z,1.20
2023-05-02T14:00:16.274Z,1.40
2023-05-02T14:02:46.963Z,1.47
2023-05-02T14:05:16.038Z,1.20
2023-05-02T14:07:47.119Z,1.27
2023-05-02T14:10:17.120Z,1.03
2023-05-02T14:12:48.660Z,1.33
2023-05-02T14:15:19.176Z,1.20
2023-05-02T14:17:49.131Z,1.20
2023-05-02T14:20:18.873Z,1.37
2023-05-02T14:22:49.411Z,1.53
2023-05-02T14:25:21.160Z,1.20
2023-05-02T14:27:53.068Z,1.43
2023-05-02T14:30:23.411Z,1.30
2023-05-02T14:32:54.683Z,1.40
2023-05-02T14:35:26.452Z,1.63
2023-05-02T14:37:56.023Z,1.50
2023-05-02T14:40:25.003Z,1.20
2023-05-02T14:42:55.705Z,1.70
2023-05-02T14:45:25.337Z,1.43
2023-05-02T14:47:56.607Z,1.60
2023-05-02T14:50:26.998Z,1.70
2023-05-02T14:52:57.626Z,2.23
2023-05-02T14:55:27.141Z,2.40
2023-05-02T14:57:59.535Z,2.17
2023-05-02T15:00:28.949Z,2.40
2023-05-02T15:02:58.394Z,2.03
2023-05-02T15:05:29.459Z,2.23
2023-05-02T15:07:59.612Z,2.10
2023-05-02T15:10:29.192Z,2.00
2023-05-02T15:13:01.669Z,2.23
2023-05-02T15:15:31.774Z,2.10
2023-05-02T15:18:01.990Z,1.83
2023-05-02T15:20:31.383Z,1.57
2023-05-02T15:23:03.628Z,4.07
2023-05-02T15:25:34.402Z,1.97
2023-05-02T15:28:06.307Z,1.50
2023-05-02T15:30:36.063Z,1.77
2023-05-02T15:33:05.748Z,2.00
2023-05-02T15:35:35.818Z,1.97
2023-05-02T15:38:04.781Z,2.00
2023-05-02T15:40:34.063Z,1.40
2023-05-02T15:43:05.973Z,1.70
2023-05-02T15:45:36.822Z,1.53
2023-05-02T15:48:06.091Z,2.10
2023-05-02T15:50:35.363Z,2.20
2023-05-02T15:53:04.845Z,2.03
2023-05-02T15:55:35.981Z,1.83
2023-05-02T15:58:06.262Z,2.20
2023-05-02T16:00:35.675Z,2.53
2023-05-02T16:03:05.391Z,2.20
2023-05-02T16:05:35.131Z,2.57
2023-05-02T16:08:04.303Z,3.00
2023-05-02T16:10:33.989Z,2.70
2023-05-02T16:13:03.379Z,3.00
2023-05-02T16:15:33.218Z,2.17
2023-05-02T16:18:02.696Z,2.30
2023-05-02T16:20:34.547Z,2.80
2023-05-02T16:23:05.375Z,2.40
2023-05-02T16:25:35.686Z,2.80
2023-05-02T16:28:05.719Z,2.80
2023-05-02T16:30:38.999Z,3.20
2023-05-02T16:33:08.248Z,2.30
2023-05-02T16:35:38.111Z,2.80
2023-05-02T16:38:07.800Z,2.40
2023-05-02T16:40:37.706Z,2.80
2023-05-02T16:43:09.460Z,2.33
2023-05-02T16:45:40.354Z,3.13
2023-05-02T16:48:09.661Z,2.37
2023-05-02T16:50:39.093Z,2.50
2023-05-02T16:53:08.656Z,3.30
2023-05-02T16:55:39.703Z,2.90
2023-05-02T16:58:09.027Z,3.17
2023-05-02T17:00:40.985Z,2.70
2023-05-02T17:03:10.488Z,3.30
2023-05-02T17:05:39.494Z,3.40
2023-05-02T17:08:09.856Z,3.03
2023-05-02T17:10:40.404Z,2.83
2023-05-02T17:13:09.921Z,2.40
2023-05-02T17:15:40.690Z,3.20
2023-05-02T17:18:10.244Z,2.80
2023-05-02T17:20:39.931Z,2.80
2023-05-02T17:23:09.856Z,2.70
2023-05-02T17:25:40.380Z,2.97
2023-05-02T17:28:09.915Z,4.73
2023-05-02T17:30:41.390Z,3.10
2023-05-02T17:33:11.749Z,2.60
2023-05-02T17:35:40.700Z,3.13
2023-05-02T17:38:10.713Z,2.73
2023-05-02T17:40:39.091Z,3.47
2023-05-02T17:43:08.618Z,3.23
2023-05-02T17:45:40.146Z,3.30
2023-05-02T17:48:11.343Z,3.43
2023-05-02T17:50:41.179Z,3.30
2023-05-02T17:53:10.674Z,3.37
2023-05-02T17:55:40.744Z,3.00
2023-05-02T17:58:10.068Z,3.20
2023-05-02T18:00:40.436Z,3.00
2023-05-02T18:03:11.348Z,3.43
2023-05-02T18:05:41.168Z,3.50
2023-05-02T18:08:10.594Z,5.37
2023-05-02T18:10:41.179Z,3.50
2023-05-02T18:13:10.486Z,2.97
2023-05-02T18:15:39.992Z,2.60
2023-05-02T18:18:11.540Z,3.27
2023-05-02T18:20:40.996Z,2.73
2023-05-02T18:23:09.897Z,2.80
2023-05-02T18:25:39.247Z,2.73
2023-05-02T18:28:08.231Z,2.60
2023-05-02T18:30:39.099Z,2.70
2023-05-02T18:33:10.084Z,2.53
2023-05-02T18:35:39.045Z,2.67
2023-05-02T18:38:09.133Z,2.33
2023-05-02T18:40:39.177Z,2.40
2023-05-02T18:43:08.622Z,3.10
2023-05-02T18:45:39.893Z,3.13
2023-05-02T18:48:10.412Z,2.40
2023-05-02T18:50:40.994Z,2.57
2023-05-02T18:53:10.195Z,2.87
2023-05-02T18:55:40.282Z,2.80
2023-05-02T18:58:10.214Z,2.73
2023-05-02T19:00:40.148Z,2.73
2023-05-02T19:03:11.146Z,3.07
2023-05-02T19:05:42.835Z,3.20
2023-05-02T19:08:12.030Z,2.73
2023-05-02T19:10:41.451Z,2.60
2023-05-02T19:13:10.975Z,2.30
2023-05-02T19:15:40.066Z,2.83
2023-05-02T19:18:11.014Z,3.50
2023-05-02T19:20:41.959Z,3.07
2023-05-02T19:23:18.892Z,2.33
2023-05-02T19:25:50.070Z,2.37
2023-05-02T19:28:20.401Z,2.43
2023-05-02T19:30:49.305Z,2.73
2023-05-02T19:33:20.919Z,2.30
2023-05-02T19:35:49.899Z,2.40
2023-05-02T19:38:19.501Z,2.80
2023-05-02T19:40:49.998Z,2.97
2023-05-02T19:43:19.441Z,2.70
2023-05-02T19:45:49.063Z,3.40
2023-05-02T19:48:19.462Z,2.60
2023-05-02T19:50:47.864Z,2.60
2023-05-02T19:53:19.116Z,2.70
2023-05-02T19:55:49.604Z,3.00
2023-05-02T19:58:20.197Z,3.00
2023-05-02T20:00:50.257Z,2.47
2023-05-02T20:03:22.312Z,2.57
2023-05-02T20:05:51.404Z,3.20
2023-05-02T20:08:22.862Z,3.40
2023-05-02T20:10:52.860Z,3.40
2023-05-02T20:13:21.964Z,2.57
2023-05-02T20:15:53.239Z,2.40
2023-05-02T20:18:23.679Z,3.57
2023-05-02T20:20:53.053Z,3.33
2023-05-02T20:23:23.180Z,3.23
2023-05-02T20:25:53.741Z,3.10
2023-05-02T20:28:23.490Z,3.50
2023-05-02T20:30:52.536Z,3.50
2023-05-02T20:33:27.518Z,2.93
2023-05-02T20:36:00.708Z,3.20
2023-05-02T20:38:30.674Z,3.50
2023-05-02T20:41:00.190Z,4.00
2023-05-02T20:43:29.629Z,3.10
2023-05-02T20:45:59.641Z,5.00
2023-05-02T20:48:31.860Z,3.47
2023-05-02T20:51:02.583Z,4.13
2023-05-02T20:53:32.099Z,3.10
2023-05-02T20:56:01.540Z,3.20
2023-05-02T20:58:31.454Z,3.83
2023-05-02T21:01:01.498Z,3.53
2023-05-02T21:03:37.196Z,4.10
2023-05-02T21:06:07.484Z,3.87
2023-05-02T21:08:37.065Z,5.20
2023-05-02T21:11:15.203Z,3.80
2023-05-02T21:13:46.176Z,4.03
2023-05-02T21:16:20.170Z,4.20
2023-05-02T21:18:51.072Z,3.87
2023-05-02T21:21:20.474Z,4.13
2023-05-02T21:23:51.058Z,3.93
2023-05-02T21:26:19.787Z,3.80
2023-05-02T21:28:48.223Z,3.20
2023-05-02T21:31:17.733Z,3.30
2023-05-02T21:33:47.558Z,3.60
2023-05-02T21:36:18.968Z,3.40
2023-05-02T21:38:50.981Z,3.33
2023-05-02T21:41:20.564Z,3.87
2023-05-02T21:43:49.495Z,3.53
2023-05-02T21:46:18.445Z,4.30
2023-05-02T21:48:47.877Z,3.83
2023-05-02T21:51:18.893Z,3.77
2023-05-02T21:53:48.280Z,3.83
2023-05-02T21:56:18.669Z,3.57
2023-05-02T21:58:49.690Z,3.63
2023-05-02T22:01:19.683Z,3.23
2023-05-02T22:03:49.827Z,3.90
2023-05-02T22:06:20.898Z,3.83
2023-05-02T22:08:51.494Z,3.27
2023-05-02T22:11:22.383Z,3.80
2023-05-02T22:13:52.956Z,4.43
2023-05-02T22:16:22.944Z,3.70
2023-05-02T22:18:52.516Z,3.37
2023-05-02T22:21:23.431Z,3.37
2023-05-02T22:23:51.830Z,4.60
2023-05-02T22:26:21.282Z,3.53
2023-05-02T22:28:50.985Z,3.20
2023-05-02T22:31:21.544Z,4.00
2023-05-02T22:33:50.684Z,3.77
2023-05-02T22:36:22.044Z,3.70
2023-05-02T22:38:52.477Z,3.80
2023-05-02T22:41:20.934Z,3.57
2023-05-02T22:43:51.006Z,3.90
2023-05-02T22:46:21.218Z,4.77
2023-05-02T22:48:53.075Z,4.00
2023-05-02T22:51:24.075Z,4.10
2023-05-02T22:53:54.734Z,4.23
2023-05-02T22:56:25.581Z,3.40
2023-05-02T22:58:56.246Z,3.33
2023-05-02T23:01:27.000Z,3.63
2023-05-02T23:03:58.238Z,3.97
2023-05-02T23:06:29.796Z,3.60
2023-05-02T23:08:59.925Z,3.67
2023-05-02T23:11:29.217Z,3.90
2023-05-02T23:14:00.291Z,4.23
2023-05-02T23:16:30.360Z,3.77
2023-05-02T23:18:59.928Z,3.63
2023-05-02T23:21:30.877Z,3.80
2023-05-02T23:24:01.871Z,3.90
2023-05-02T23:26:32.955Z,4.10
2023-05-02T23:29:03.135Z,3.97
2023-05-02T23:31:33.553Z,4.33
2023-05-02T23:34:05.096Z,4.60
2023-05-02T23:36:37.559Z,4.73
2023-05-02T23:39:06.501Z,3.37
2023-05-02T23:41:36.099Z,3.40
2023-05-02T23:44:06.188Z,4.03
2023-05-02T23:46:35.802Z,3.90
2023-05-02T23:49:05.407Z,4.33
2023-05-02T23:51:38.324Z,4.43
2023-05-02T23:54:07.968Z,4.40
2023-05-02T23:56:38.348Z,4.10
2023-05-02T23:59:08.960Z,4.43
